createdAt,value
2023-02-13T00:00:38.257Z,1024.89
2023-02-13T00:01:38.229Z,1024.83
2023-02-13T00:02:38.235Z,1024.82
2023-02-13T00:03:38.276Z,1024.83
2023-02-13T00:04:38.133Z,1024.85
2023-02-13T00:05:38.113Z,1024.85
2023-02-13T00:06:38.070Z,1024.81
2023-02-13T00:07:38.043Z,1024.83
2023-02-13T00:08:38.008Z,1024.8
2023-02-13T00:09:37.980Z,1024.83
2023-02-13T00:10:37.973Z,1024.82
2023-02-13T00:11:37.916Z,1024.79
2023-02-13T00:12:37.894Z,1024.76
2023-02-13T00:13:37.884Z,1024.76
2023-02-13T00:14:37.823Z,1024.79
2023-02-13T00:15:37.821Z,1024.76
2023-02-13T00:16:37.778Z,1024.72
2023-02-13T00:17:37.731Z,1024.72
2023-02-13T00:18:37.700Z,1024.72
2023-02-13T00:19:37.671Z,1024.72
2023-02-13T00:20:37.636Z,1024.69
2023-02-13T00:21:37.612Z,1024.68
2023-02-13T00:22:37.575Z,1024.67
2023-02-13T00:23:37.560Z,1024.66
2023-02-13T00:24:37.516Z,1024.66
2023-02-13T00:25:37.486Z,1024.62
2023-02-13T00:26:37.484Z,1024.59
2023-02-13T00:27:37.421Z,1024.63
2023-02-13T00:28:37.472Z,1024.62
2023-02-13T00:29:37.362Z,1024.64
2023-02-13T00:30:37.334Z,1024.62
2023-02-13T00:31:37.477Z,1024.64
2023-02-13T00:32:37.264Z,1024.65
2023-02-13T00:33:37.230Z,1024.66
2023-02-13T00:34:37.202Z,1024.62
2023-02-13T00:35:37.168Z,1024.65
2023-02-13T00:36:37.139Z,1024.63
2023-02-13T00:37:37.108Z,1024.62
2023-02-13T00:38:37.083Z,1024.63
2023-02-13T00:39:37.050Z,1024.64
2023-02-13T00:40:37.015Z,1024.56
2023-02-13T00:41:36.980Z,1024.58
2023-02-13T00:42:36.987Z,1024.58
2023-02-13T00:43:36.923Z,1024.56
2023-02-13T00:44:36.890Z,1024.56
2023-02-13T00:45:36.858Z,1024.59
2023-02-13T00:46:36.929Z,1024.55
2023-02-13T00:47:36.794Z,1024.59
2023-02-13T00:48:36.770Z,1024.55
2023-02-13T00:49:36.733Z,1024.56
2023-02-13T00:50:36.701Z,1024.57
2023-02-13T00:51:36.676Z,1024.51
2023-02-13T00:52:36.643Z,1024.54
2023-02-13T00:53:36.612Z,1024.53
2023-02-13T00:54:36.580Z,1024.54
2023-02-13T00:55:36.547Z,1024.52
2023-02-13T00:56:36.529Z,1024.55
2023-02-13T00:57:36.487Z,1024.55
2023-02-13T00:58:36.498Z,1024.52
2023-02-13T00:59:36.421Z,1024.56
2023-02-13T01:00:36.394Z,1024.59
2023-02-13T01:01:36.402Z,1024.59
2023-02-13T01:02:36.329Z,1024.61
2023-02-13T01:03:36.368Z,1024.6
2023-02-13T01:04:36.273Z,1024.6
2023-02-13T01:05:36.239Z,1024.63
2023-02-13T01:06:36.209Z,1024.61
2023-02-13T01:07:36.176Z,1024.56
2023-02-13T01:08:36.146Z,1024.61
2023-02-13T01:09:36.115Z,1024.6
2023-02-13T01:10:36.087Z,1024.61
2023-02-13T01:11:36.058Z,1024.62
2023-02-13T01:12:36.026Z,1024.6
2023-02-13T01:13:35.999Z,1024.58
2023-02-13T01:14:36.034Z,1024.57
2023-02-13T01:15:35.947Z,1024.61
2023-02-13T01:16:35.901Z,1024.61
2023-02-13T01:17:35.876Z,1024.57
2023-02-13T01:18:35.839Z,1024.57
2023-02-13T01:19:35.814Z,1024.56
2023-02-13T01:20:35.777Z,1024.57
2023-02-13T01:21:35.749Z,1024.62
2023-02-13T01:22:35.728Z,1024.57
2023-02-13T01:23:35.687Z,1024.6
2023-02-13T01:24:35.686Z,1024.58
2023-02-13T01:25:35.630Z,1024.59
2023-02-13T01:26:35.610Z,1024.62
2023-02-13T01:27:35.597Z,1024.6
2023-02-13T01:28:35.624Z,1024.54
2023-02-13T01:29:35.503Z,1024.59
2023-02-13T01:30:35.497Z,1024.59
2023-02-13T01:31:35.520Z,1024.61
2023-02-13T01:32:35.410Z,1024.6
2023-02-13T01:33:35.378Z,1024.6
2023-02-13T01:34:35.348Z,1024.6
2023-02-13T01:35:35.318Z,1024.59
2023-02-13T01:36:35.284Z,1024.61
2023-02-13T01:37:35.256Z,1024.58
2023-02-13T01:38:35.224Z,1024.58
2023-02-13T01:39:35.205Z,1024.57
2023-02-13T01:40:35.160Z,1024.59
2023-02-13T01:41:35.128Z,1024.58
2023-02-13T01:42:35.096Z,1024.54
2023-02-13T01:43:35.067Z,1024.59
2023-02-13T01:44:35.035Z,1024.59
2023-02-13T01:45:35.004Z,1024.56
2023-02-13T01:46:35.079Z,1024.56
2023-02-13T01:47:34.947Z,1024.51
2023-02-13T01:48:34.909Z,1024.54
2023-02-13T01:49:34.880Z,1024.52
2023-02-13T01:50:34.847Z,1024.51
2023-02-13T01:51:34.818Z,1024.54
2023-02-13T01:52:34.785Z,1024.55
2023-02-13T01:53:34.757Z,1024.58
2023-02-13T01:54:34.724Z,1024.54
2023-02-13T01:55:34.697Z,1024.56
2023-02-13T01:56:34.664Z,1024.53
2023-02-13T01:57:34.636Z,1024.53
2023-02-13T01:58:34.602Z,1024.51
2023-02-13T01:59:34.570Z,1024.55
2023-02-13T02:00:34.537Z,1024.54
2023-02-13T02:01:34.593Z,1024.5
2023-02-13T02:02:34.524Z,1024.52
2023-02-13T02:03:34.450Z,1024.49
2023-02-13T02:04:34.415Z,1024.54
2023-02-13T02:05:34.385Z,1024.47
2023-02-13T02:06:34.362Z,1024.44
2023-02-13T02:07:34.322Z,1024.44
2023-02-13T02:08:34.300Z,1024.47
2023-02-13T02:09:34.264Z,1024.41
2023-02-13T02:10:34.230Z,1024.41
2023-02-13T02:11:34.199Z,1024.4
2023-02-13T02:12:34.173Z,1024.39
2023-02-13T02:13:34.140Z,1024.37
2023-02-13T02:14:34.121Z,1024.35
2023-02-13T02:15:34.078Z,1024.32
2023-02-13T02:16:34.066Z,1024.34
2023-02-13T02:17:34.017Z,1024.35
2023-02-13T02:18:34.015Z,1024.33
2023-02-13T02:19:33.964Z,1024.31
2023-02-13T02:20:33.926Z,1024.32
2023-02-13T02:21:33.919Z,1024.33
2023-02-13T02:22:33.875Z,1024.32
2023-02-13T02:23:33.842Z,1024.33
2023-02-13T02:24:33.806Z,1024.31
2023-02-13T02:25:33.771Z,1024.33
2023-02-13T02:26:33.743Z,1024.3
2023-02-13T02:27:33.710Z,1024.36
2023-02-13T02:28:33.716Z,1024.32
2023-02-13T02:29:33.647Z,1024.35
2023-02-13T02:30:33.664Z,1024.34
2023-02-13T02:31:33.609Z,1024.35
2023-02-13T02:32:33.559Z,1024.32
2023-02-13T02:33:33.529Z,1024.34
2023-02-13T02:34:33.538Z,1024.33
2023-02-13T02:35:33.470Z,1024.32
2023-02-13T02:36:33.436Z,1024.34
2023-02-13T02:37:33.407Z,1024.31
2023-02-13T02:38:33.374Z,1024.31
2023-02-13T02:39:33.351Z,1024.31
2023-02-13T02:40:33.323Z,1024.33
2023-02-13T02:41:33.289Z,1024.33
2023-02-13T02:42:33.249Z,1024.29
2023-02-13T02:43:33.217Z,1024.3
2023-02-13T02:44:33.189Z,1024.3
2023-02-13T02:45:33.156Z,1024.28
2023-02-13T02:46:33.151Z,1024.33
2023-02-13T02:47:33.099Z,1024.3
2023-02-13T02:48:33.066Z,1024.32
2023-02-13T02:49:33.030Z,1024.27
2023-02-13T02:50:33.030Z,1024.29
2023-02-13T02:51:32.966Z,1024.28
2023-02-13T02:52:32.942Z,1024.25
2023-02-13T02:53:32.915Z,1024.28
2023-02-13T02:54:32.875Z,1024.27
2023-02-13T02:55:32.842Z,1024.27
2023-02-13T02:56:32.813Z,1024.24
2023-02-13T02:57:32.782Z,1024.23
2023-02-13T02:58:32.748Z,1024.22
2023-02-13T02:59:32.718Z,1024.23
2023-02-13T03:00:32.734Z,1024.22
2023-02-13T03:01:32.656Z,1024.24
2023-02-13T03:02:32.632Z,1024.2
2023-02-13T03:03:32.597Z,1024.22
2023-02-13T03:04:32.639Z,1024.23
2023-02-13T03:05:32.533Z,1024.17
2023-02-13T03:06:32.530Z,1024.19
2023-02-13T03:07:32.476Z,1024.19
2023-02-13T03:08:32.439Z,1024.19
2023-02-13T03:09:32.409Z,1024.16
2023-02-13T03:10:32.379Z,1024.17
2023-02-13T03:11:32.348Z,1024.19
2023-02-13T03:12:32.319Z,1024.18
2023-02-13T03:13:32.287Z,1024.15
2023-02-13T03:14:32.255Z,1024.18
2023-02-13T03:15:32.229Z,1024.17
2023-02-13T03:16:32.257Z,1024.19
2023-02-13T03:17:32.175Z,1024.21
2023-02-13T03:18:32.129Z,1024.18
2023-02-13T03:19:32.100Z,1024.18
2023-02-13T03:20:32.069Z,1024.19
2023-02-13T03:21:32.050Z,1024.21
2023-02-13T03:22:32.034Z,1024.17
2023-02-13T03:23:31.975Z,1024.2
2023-02-13T03:24:31.944Z,1024.23
2023-02-13T03:25:31.914Z,1024.23
2023-02-13T03:26:31.884Z,1024.24
2023-02-13T03:27:31.853Z,1024.25
2023-02-13T03:28:31.867Z,1024.25
2023-02-13T03:29:31.791Z,1024.28
2023-02-13T03:30:31.780Z,1024.25
2023-02-13T03:31:31.797Z,1024.27
2023-02-13T03:32:31.695Z,1024.28
2023-02-13T03:33:31.666Z,1024.26
2023-02-13T03:34:31.634Z,1024.29
2023-02-13T03:35:31.606Z,1024.29
2023-02-13T03:36:31.574Z,1024.26
2023-02-13T03:37:31.541Z,1024.22
2023-02-13T03:38:31.542Z,1024.25
2023-02-13T03:39:31.480Z,1024.28
2023-02-13T03:40:31.448Z,1024.29
2023-02-13T03:41:31.417Z,1024.35
2023-02-13T03:42:31.384Z,1024.34
2023-02-13T03:43:31.354Z,1024.32
2023-02-13T03:44:31.329Z,1024.32
2023-02-13T03:45:31.297Z,1024.28
2023-02-13T03:46:31.260Z,1024.35
2023-02-13T03:47:31.230Z,1024.33
2023-02-13T03:48:31.197Z,1024.41
2023-02-13T03:49:31.166Z,1024.38
2023-02-13T03:50:31.137Z,1024.44
2023-02-13T03:51:31.104Z,1024.44
2023-02-13T03:52:31.074Z,1024.46
2023-02-13T03:53:31.041Z,1024.46
2023-02-13T03:54:31.042Z,1024.46
2023-02-13T03:55:30.979Z,1024.48
2023-02-13T03:56:30.948Z,1024.48
2023-02-13T03:57:30.916Z,1024.54
2023-02-13T03:58:30.888Z,1024.49
2023-02-13T03:59:30.861Z,1024.48
2023-02-13T04:00:30.829Z,1024.48
2023-02-13T04:01:30.836Z,1024.44
2023-02-13T04:02:30.803Z,1024.47
2023-02-13T04:03:30.728Z,1024.47
2023-02-13T04:04:30.700Z,1024.48
2023-02-13T04:05:30.666Z,1024.47
2023-02-13T04:06:30.645Z,1024.48
2023-02-13T04:07:30.774Z,1024.51
2023-02-13T04:08:30.590Z,1024.47
2023-02-13T04:09:30.554Z,1024.46
2023-02-13T04:10:30.544Z,1024.48
2023-02-13T04:11:30.477Z,1024.48
2023-02-13T04:12:30.458Z,1024.44
2023-02-13T04:13:30.428Z,1024.49
2023-02-13T04:14:30.391Z,1024.5
2023-02-13T04:15:30.364Z,1024.46
2023-02-13T04:16:30.360Z,1024.42
2023-02-13T04:17:30.292Z,1024.44
2023-02-13T04:18:30.259Z,1024.44
2023-02-13T04:19:30.228Z,1024.44
2023-02-13T04:20:30.197Z,1024.42
2023-02-13T04:21:30.166Z,1024.41
2023-02-13T04:22:30.136Z,1024.39
2023-02-13T04:23:30.115Z,1024.41
2023-02-13T04:24:30.082Z,1024.4
2023-02-13T04:25:30.039Z,1024.4
2023-02-13T04:26:30.037Z,1024.41
2023-02-13T04:27:29.977Z,1024.37
2023-02-13T04:28:30.022Z,1024.34
2023-02-13T04:29:29.915Z,1024.38
2023-02-13T04:30:29.917Z,1024.42
2023-02-13T04:31:29.985Z,1024.4
2023-02-13T04:32:29.825Z,1024.37
2023-02-13T04:33:29.809Z,1024.39
2023-02-13T04:34:29.764Z,1024.4
2023-02-13T04:35:29.736Z,1024.4
2023-02-13T04:36:29.705Z,1024.32
2023-02-13T04:37:29.665Z,1024.43
2023-02-13T04:38:29.637Z,1024.39
2023-02-13T04:39:29.604Z,1024.4
2023-02-13T04:40:29.571Z,1024.35
2023-02-13T04:41:29.559Z,1024.34
2023-02-13T04:42:29.542Z,1024.37
2023-02-13T04:43:29.494Z,1024.4
2023-02-13T04:44:29.447Z,1024.35
2023-02-13T04:45:29.417Z,1024.4
2023-02-13T04:46:29.384Z,1024.4
2023-02-13T04:47:29.355Z,1024.38
2023-02-13T04:48:29.322Z,1024.36
2023-02-13T04:49:29.293Z,1024.34
2023-02-13T04:50:29.261Z,1024.36
2023-02-13T04:51:29.229Z,1024.36
2023-02-13T04:52:29.196Z,1024.36
2023-02-13T04:53:29.165Z,1024.35
2023-02-13T04:54:29.135Z,1024.33
2023-02-13T04:55:29.105Z,1024.33
2023-02-13T04:56:29.071Z,1024.34
2023-02-13T04:57:29.041Z,1024.3
2023-02-13T04:58:29.036Z,1024.3
2023-02-13T04:59:28.981Z,1024.31
2023-02-13T05:00:28.954Z,1024.28
2023-02-13T05:01:28.943Z,1024.31
2023-02-13T05:02:29.032Z,1024.35
2023-02-13T05:03:28.850Z,1024.31
2023-02-13T05:04:28.881Z,1024.33
2023-02-13T05:05:28.800Z,1024.32
2023-02-13T05:06:28.756Z,1024.34
2023-02-13T05:07:28.728Z,1024.32
2023-02-13T05:08:28.697Z,1024.28
2023-02-13T05:09:28.665Z,1024.33
2023-02-13T05:10:28.636Z,1024.3
2023-02-13T05:11:28.601Z,1024.31
2023-02-13T05:12:28.569Z,1024.31
2023-02-13T05:13:28.543Z,1024.32
2023-02-13T05:14:28.532Z,1024.32
2023-02-13T05:15:28.527Z,1024.32
2023-02-13T05:16:28.441Z,1024.34
2023-02-13T05:17:28.509Z,1024.36
2023-02-13T05:18:28.379Z,1024.33
2023-02-13T05:19:28.351Z,1024.32
2023-02-13T05:20:28.316Z,1024.31
2023-02-13T05:21:28.293Z,1024.31
2023-02-13T05:22:28.257Z,1024.28
2023-02-13T05:23:28.224Z,1024.27
2023-02-13T05:24:28.194Z,1024.28
2023-02-13T05:25:28.160Z,1024.28
2023-02-13T05:26:28.128Z,1024.3
2023-02-13T05:27:28.097Z,1024.29
2023-02-13T05:28:28.160Z,1024.31
2023-02-13T05:29:28.035Z,1024.28
2023-02-13T05:30:28.032Z,1024.32
2023-02-13T05:31:28.086Z,1024.29
2023-02-13T05:32:27.941Z,1024.28
2023-02-13T05:33:27.913Z,1024.26
2023-02-13T05:34:27.882Z,1024.28
2023-02-13T05:35:27.852Z,1024.23
2023-02-13T05:36:27.820Z,1024.29
2023-02-13T05:37:27.785Z,1024.25
2023-02-13T05:38:27.763Z,1024.26
2023-02-13T05:39:27.722Z,1024.21
2023-02-13T05:40:27.693Z,1024.17
2023-02-13T05:41:27.661Z,1024.16
2023-02-13T05:42:27.631Z,1024.16
2023-02-13T05:43:27.597Z,1024.13
2023-02-13T05:44:27.573Z,1024.16
2023-02-13T05:45:27.535Z,1024.14
2023-02-13T05:46:27.573Z,1024.13
2023-02-13T05:47:27.473Z,1024.15
2023-02-13T05:48:27.445Z,1024.13
2023-02-13T05:49:27.418Z,1024.16
2023-02-13T05:50:27.382Z,1024.09
2023-02-13T05:51:27.347Z,1024.11
2023-02-13T05:52:27.320Z,1024.12
2023-02-13T05:53:27.291Z,1024.14
2023-02-13T05:54:27.255Z,1024.12
2023-02-13T05:55:27.226Z,1024.09
2023-02-13T05:56:27.199Z,1024.12
2023-02-13T05:57:27.158Z,1024.1
2023-02-13T05:58:27.130Z,1024.09
2023-02-13T05:59:27.093Z,1024.11
2023-02-13T06:00:27.062Z,1024.13
2023-02-13T06:01:27.030Z,1024.15
2023-02-13T06:02:27.074Z,1024.18
2023-02-13T06:03:27.065Z,1024.21
2023-02-13T06:04:26.941Z,1024.18
2023-02-13T06:05:26.904Z,1024.23
2023-02-13T06:06:26.883Z,1024.22
2023-02-13T06:07:26.836Z,1024.25
2023-02-13T06:08:26.811Z,1024.25
2023-02-13T06:09:26.773Z,1024.24
2023-02-13T06:10:26.744Z,1024.25
2023-02-13T06:11:26.719Z,1024.23
2023-02-13T06:12:26.680Z,1024.27
2023-02-13T06:13:26.654Z,1024.28
2023-02-13T06:14:26.616Z,1024.28
2023-02-13T06:15:26.582Z,1024.26
2023-02-13T06:16:26.763Z,1024.3
2023-02-13T06:17:26.518Z,1024.25
2023-02-13T06:18:26.567Z,1024.3
2023-02-13T06:19:26.454Z,1024.28
2023-02-13T06:20:26.436Z,1024.27
2023-02-13T06:21:26.392Z,1024.28
2023-02-13T06:22:26.359Z,1024.26
2023-02-13T06:23:26.330Z,1024.25
2023-02-13T06:24:26.295Z,1024.26
2023-02-13T06:25:26.264Z,1024.26
2023-02-13T06:26:26.241Z,1024.3
2023-02-13T06:27:26.203Z,1024.26
2023-02-13T06:28:26.183Z,1024.26
2023-02-13T06:29:26.137Z,1024.27
2023-02-13T06:30:26.129Z,1024.24
2023-02-13T06:31:26.350Z,1024.21
2023-02-13T06:32:26.041Z,1024.2
2023-02-13T06:33:26.016Z,1024.19
2023-02-13T06:34:26.012Z,1024.21
2023-02-13T06:35:25.945Z,1024.18
2023-02-13T06:36:25.914Z,1024.19
2023-02-13T06:37:25.880Z,1024.22
2023-02-13T06:38:25.847Z,1024.21
2023-02-13T06:39:25.816Z,1024.22
2023-02-13T06:40:25.789Z,1024.24
2023-02-13T06:41:25.752Z,1024.23
2023-02-13T06:42:25.724Z,1024.22
2023-02-13T06:43:25.688Z,1024.22
2023-02-13T06:44:25.652Z,1024.23
2023-02-13T06:45:25.623Z,1024.23
2023-02-13T06:46:25.745Z,1024.21
2023-02-13T06:47:25.575Z,1024.24
2023-02-13T06:48:25.541Z,1024.25
2023-02-13T06:49:25.494Z,1024.26
2023-02-13T06:50:25.522Z,1024.26
2023-02-13T06:51:25.428Z,1024.23
2023-02-13T06:52:25.393Z,1024.25
2023-02-13T06:53:25.362Z,1024.24
2023-02-13T06:54:37.271Z,1024.25
2023-02-13T06:55:25.296Z,1024.26
2023-02-13T06:56:25.266Z,1024.25
2023-02-13T06:57:25.253Z,1024.25
2023-02-13T06:58:25.201Z,1024.24
2023-02-13T06:59:25.166Z,1024.25
2023-02-13T07:00:27.141Z,1024.22
2023-02-13T07:01:25.229Z,1024.24
2023-02-13T07:02:25.182Z,1024.21
2023-02-13T07:03:25.044Z,1024.23
2023-02-13T07:04:25.007Z,1024.22
2023-02-13T07:05:24.973Z,1024.2
2023-02-13T07:06:24.963Z,1024.2
2023-02-13T07:07:24.908Z,1024.24
2023-02-13T07:08:24.871Z,1024.26
2023-02-13T07:09:24.839Z,1024.27
2023-02-13T07:10:24.807Z,1024.27
2023-02-13T07:11:24.773Z,1024.28
2023-02-13T07:12:24.751Z,1024.29
2023-02-13T07:13:24.708Z,1024.3
2023-02-13T07:14:24.674Z,1024.31
2023-02-13T07:15:24.646Z,1024.3
2023-02-13T07:16:24.702Z,1024.3
2023-02-13T07:17:24.579Z,1024.33
2023-02-13T07:18:24.550Z,1024.35
2023-02-13T07:19:24.523Z,1024.39
2023-02-13T07:20:24.480Z,1024.32
2023-02-13T07:21:24.445Z,1024.35
2023-02-13T07:22:24.450Z,1024.35
2023-02-13T07:23:24.380Z,1024.36
2023-02-13T07:24:24.355Z,1024.38
2023-02-13T07:25:24.346Z,1024.42
2023-02-13T07:26:24.284Z,1024.38
2023-02-13T07:27:24.256Z,1024.37
2023-02-13T07:28:24.384Z,1024.37
2023-02-13T07:29:24.184Z,1024.34
2023-02-13T07:30:24.305Z,1024.37
2023-02-13T07:31:24.169Z,1024.37
2023-02-13T07:32:24.089Z,1024.38
2023-02-13T07:33:24.064Z,1024.4
2023-02-13T07:34:24.026Z,1024.41
2023-02-13T07:35:23.988Z,1024.43
2023-02-13T07:36:23.959Z,1024.42
2023-02-13T07:37:23.929Z,1024.44
2023-02-13T07:38:23.921Z,1024.46
2023-02-13T07:39:23.859Z,1024.46
2023-02-13T07:40:23.833Z,1024.47
2023-02-13T07:41:23.799Z,1024.48
2023-02-13T07:42:23.764Z,1024.53
2023-02-13T07:43:23.730Z,1024.48
2023-02-13T07:44:23.700Z,1024.49
2023-02-13T07:45:23.688Z,1024.51
2023-02-13T07:46:23.665Z,1024.54
2023-02-13T07:47:23.600Z,1024.52
2023-02-13T07:48:23.570Z,1024.5
2023-02-13T07:49:23.536Z,1024.55
2023-02-13T07:50:23.506Z,1024.55
2023-02-13T07:51:23.474Z,1024.55
2023-02-13T07:52:23.461Z,1024.55
2023-02-13T07:53:23.405Z,1024.55
2023-02-13T07:54:23.405Z,1024.55
2023-02-13T07:55:23.346Z,1024.59
2023-02-13T07:56:23.313Z,1024.56
2023-02-13T07:57:23.276Z,1024.58
2023-02-13T07:58:23.270Z,1024.55
2023-02-13T07:59:23.213Z,1024.58
2023-02-13T08:00:23.183Z,1024.59
2023-02-13T08:01:23.219Z,1024.63
2023-02-13T08:02:23.116Z,1024.58
2023-02-13T08:03:23.081Z,1024.59
2023-02-13T08:04:24.796Z,1024.63
2023-02-13T08:05:23.022Z,1024.61
2023-02-13T08:06:23.001Z,1024.59
2023-02-13T08:07:22.955Z,1024.6
2023-02-13T08:08:22.920Z,1024.65
2023-02-13T08:09:22.897Z,1024.62
2023-02-13T08:10:22.891Z,1024.62
2023-02-13T08:11:22.836Z,1024.66
2023-02-13T08:12:22.796Z,1024.71
2023-02-13T08:13:22.772Z,1024.71
2023-02-13T08:14:22.724Z,1024.67
2023-02-13T08:15:22.702Z,1024.69
2023-02-13T08:16:22.662Z,1024.71
2023-02-13T08:17:22.626Z,1024.72
2023-02-13T08:18:22.593Z,1024.75
2023-02-13T08:19:22.561Z,1024.74
2023-02-13T08:20:22.537Z,1024.72
2023-02-13T08:21:22.502Z,1024.64
2023-02-13T08:22:22.463Z,1024.67
2023-02-13T08:23:22.457Z,1024.66
2023-02-13T08:24:22.434Z,1024.68
2023-02-13T08:25:22.366Z,1024.7
2023-02-13T08:26:22.387Z,1024.69
2023-02-13T08:27:22.304Z,1024.71
2023-02-13T08:28:22.301Z,1024.68
2023-02-13T08:29:22.237Z,1024.71
2023-02-13T08:30:22.207Z,1024.7
2023-02-13T08:31:22.267Z,1024.74
2023-02-13T08:32:22.311Z,1024.71
2023-02-13T08:33:22.108Z,1024.7
2023-02-13T08:34:22.073Z,1024.7
2023-02-13T08:35:22.045Z,1024.67
2023-02-13T08:36:22.009Z,1024.64
2023-02-13T08:37:21.978Z,1024.67
2023-02-13T08:38:21.943Z,1024.65
2023-02-13T08:39:21.915Z,1024.63
2023-02-13T08:40:23.453Z,1024.66
2023-02-13T08:41:21.849Z,1024.68
2023-02-13T08:42:21.845Z,1024.66
2023-02-13T08:43:21.794Z,1024.67
2023-02-13T08:44:21.780Z,1024.69
2023-02-13T08:45:21.726Z,1024.63
2023-02-13T08:46:21.720Z,1024.68
2023-02-13T08:47:21.661Z,1024.69
2023-02-13T08:48:21.624Z,1024.67
2023-02-13T08:49:21.594Z,1024.67
2023-02-13T08:50:21.560Z,1024.62
2023-02-13T08:51:21.538Z,1024.63
2023-02-13T08:52:21.497Z,1024.63
2023-02-13T08:53:21.466Z,1024.64
2023-02-13T08:54:21.433Z,1024.61
2023-02-13T08:55:21.403Z,1024.61
2023-02-13T08:56:21.372Z,1024.6
2023-02-13T08:57:21.336Z,1024.6
2023-02-13T08:58:21.354Z,1024.61
2023-02-13T08:59:21.273Z,1024.6
2023-02-13T09:00:21.243Z,1024.61
2023-02-13T09:01:21.276Z,1024.63
2023-02-13T09:02:21.283Z,1024.6
2023-02-13T09:03:21.149Z,1024.57
2023-02-13T09:04:21.115Z,1024.6
2023-02-13T09:05:21.087Z,1024.6
2023-02-13T09:06:21.052Z,1024.56
2023-02-13T09:07:21.020Z,1024.58
2023-02-13T09:08:21.003Z,1024.55
2023-02-13T09:09:20.957Z,1024.56
2023-02-13T09:10:20.924Z,1024.55
2023-02-13T09:11:20.893Z,1024.53
2023-02-13T09:12:20.865Z,1024.56
2023-02-13T09:13:20.829Z,1024.57
2023-02-13T09:14:20.826Z,1024.56
2023-02-13T09:15:20.774Z,1024.57
2023-02-13T09:16:20.787Z,1024.56
2023-02-13T09:17:20.704Z,1024.55
2023-02-13T09:18:20.674Z,1024.56
2023-02-13T09:19:20.641Z,1024.54
2023-02-13T09:20:20.613Z,1024.58
2023-02-13T09:21:20.586Z,1024.58
2023-02-13T09:22:20.547Z,1024.59
2023-02-13T09:23:20.516Z,1024.58
2023-02-13T09:24:20.486Z,1024.57
2023-02-13T09:25:20.452Z,1024.54
2023-02-13T09:26:20.886Z,1024.54
2023-02-13T09:27:20.391Z,1024.59
2023-02-13T09:28:20.415Z,1024.62
2023-02-13T09:29:20.327Z,1024.61
2023-02-13T09:30:20.325Z,1024.62
2023-02-13T09:31:20.357Z,1024.58
2023-02-13T09:32:20.234Z,1024.57
2023-02-13T09:33:20.201Z,1024.57
2023-02-13T09:34:20.178Z,1024.56
2023-02-13T09:35:20.139Z,1024.59
2023-02-13T09:36:20.266Z,1024.56
2023-02-13T09:37:20.075Z,1024.62
2023-02-13T09:38:20.046Z,1024.59
2023-02-13T09:39:20.012Z,1024.62
2023-02-13T09:40:19.983Z,1024.58
2023-02-13T09:41:19.950Z,1024.59
2023-02-13T09:42:19.933Z,1024.58
2023-02-13T09:43:19.888Z,1024.57
2023-02-13T09:44:19.860Z,1024.55
2023-02-13T09:45:19.834Z,1024.57
2023-02-13T09:46:19.844Z,1024.57
2023-02-13T09:47:19.764Z,1024.6
2023-02-13T09:48:19.732Z,1024.58
2023-02-13T09:49:19.705Z,1024.6
2023-02-13T09:50:19.673Z,1024.6
2023-02-13T09:51:19.645Z,1024.58
2023-02-13T09:52:19.607Z,1024.59
2023-02-13T09:53:19.583Z,1024.6
2023-02-13T09:54:19.542Z,1024.56
2023-02-13T09:55:19.519Z,1024.6
2023-02-13T09:56:19.480Z,1024.63
2023-02-13T09:57:19.451Z,1024.63
2023-02-13T09:58:19.419Z,1024.65
2023-02-13T09:59:19.387Z,1024.64
2023-02-13T10:00:19.355Z,1024.68
2023-02-13T10:01:19.354Z,1024.68
2023-02-13T10:02:19.318Z,1024.69
2023-02-13T10:03:19.267Z,1024.64
2023-02-13T10:04:19.233Z,1024.67
2023-02-13T10:05:19.258Z,1024.67
2023-02-13T10:06:19.168Z,1024.65
2023-02-13T10:07:19.143Z,1024.67
2023-02-13T10:08:19.103Z,1024.65
2023-02-13T10:09:19.078Z,1024.66
2023-02-13T10:10:19.044Z,1024.65
2023-02-13T10:11:19.013Z,1024.62
2023-02-13T10:12:18.980Z,1024.64
2023-02-13T10:13:18.949Z,1024.59
2023-02-13T10:14:18.923Z,1024.63
2023-02-13T10:15:18.889Z,1024.58
2023-02-13T10:16:18.871Z,1024.59
2023-02-13T10:17:18.828Z,1024.61
2023-02-13T10:18:18.822Z,1024.63
2023-02-13T10:19:18.766Z,1024.6
2023-02-13T10:20:18.733Z,1024.63
2023-02-13T10:21:18.704Z,1024.62
2023-02-13T10:22:18.676Z,1024.67
2023-02-13T10:23:18.656Z,1024.63
2023-02-13T10:24:18.609Z,1024.64
2023-02-13T10:25:18.581Z,1024.65
2023-02-13T10:26:20.145Z,1024.64
2023-02-13T10:27:18.519Z,1024.64
2023-02-13T10:28:18.553Z,1024.63
2023-02-13T10:29:18.457Z,1024.66
2023-02-13T10:30:18.426Z,1024.64
2023-02-13T10:31:18.523Z,1024.65
2023-02-13T10:32:18.572Z,1024.66
2023-02-13T10:33:18.354Z,1024.61
2023-02-13T10:34:18.341Z,1024.62
2023-02-13T10:35:18.277Z,1024.62
2023-02-13T10:36:18.257Z,1024.6
2023-02-13T10:37:18.227Z,1024.6
2023-02-13T10:38:18.183Z,1024.61
2023-02-13T10:39:18.150Z,1024.59
2023-02-13T10:40:18.125Z,1024.58
2023-02-13T10:41:18.090Z,1024.54
2023-02-13T10:42:18.060Z,1024.53
2023-02-13T10:43:18.030Z,1024.54
2023-02-13T10:44:18.029Z,1024.59
2023-02-13T10:45:17.972Z,1024.56
2023-02-13T10:46:17.965Z,1024.57
2023-02-13T10:47:17.914Z,1024.6
2023-02-13T10:48:17.883Z,1024.59
2023-02-13T10:49:17.846Z,1024.57
2023-02-13T10:50:17.853Z,1024.54
2023-02-13T10:51:17.785Z,1024.51
2023-02-13T10:52:17.756Z,1024.55
2023-02-13T10:53:17.723Z,1024.58
2023-02-13T10:54:17.704Z,1024.55
2023-02-13T10:55:17.664Z,1024.51
2023-02-13T10:56:17.642Z,1024.55
2023-02-13T10:57:17.604Z,1024.48
2023-02-13T10:58:17.578Z,1024.44
2023-02-13T10:59:17.540Z,1024.44
2023-02-13T11:00:17.602Z,1024.43
2023-02-13T11:01:17.579Z,1024.45
2023-02-13T11:02:17.451Z,1024.43
2023-02-13T11:03:17.417Z,1024.39
2023-02-13T11:04:17.468Z,1024.4
2023-02-13T11:05:17.357Z,1024.38
2023-02-13T11:06:17.355Z,1024.43
2023-02-13T11:07:17.301Z,1024.4
2023-02-13T11:08:17.267Z,1024.36
2023-02-13T11:09:17.235Z,1024.38
2023-02-13T11:10:17.268Z,1024.33
2023-02-13T11:11:17.176Z,1024.28
2023-02-13T11:12:17.148Z,1024.28
2023-02-13T11:13:17.126Z,1024.26
2023-02-13T11:14:17.089Z,1024.3
2023-02-13T11:15:17.054Z,1024.29
2023-02-13T11:16:17.063Z,1024.27
2023-02-13T11:17:16.997Z,1024.27
2023-02-13T11:18:18.571Z,1024.28
2023-02-13T11:19:16.933Z,1024.25
2023-02-13T11:20:16.912Z,1024.26
2023-02-13T11:21:16.902Z,1024.25
2023-02-13T11:22:16.882Z,1024.23
2023-02-13T11:23:16.813Z,1024.22
2023-02-13T11:24:16.785Z,1024.25
2023-02-13T11:25:16.753Z,1024.23
2023-02-13T11:26:16.733Z,1024.2
2023-02-13T11:27:16.692Z,1024.18
2023-02-13T11:28:16.708Z,1024.25
2023-02-13T11:29:16.640Z,1024.25
2023-02-13T11:30:16.603Z,1024.22
2023-02-13T11:31:16.693Z,1024.19
2023-02-13T11:32:16.741Z,1024.22
2023-02-13T11:33:16.518Z,1024.22
2023-02-13T11:34:16.486Z,1024.19
2023-02-13T11:35:16.458Z,1024.19
2023-02-13T11:36:16.428Z,1024.2
2023-02-13T11:37:16.398Z,1024.17
2023-02-13T11:38:16.402Z,1024.13
2023-02-13T11:39:16.339Z,1024.09
2023-02-13T11:40:16.308Z,1024.1
2023-02-13T11:41:16.281Z,1024.08
2023-02-13T11:42:16.249Z,1024.05
2023-02-13T11:43:16.223Z,1024.04
2023-02-13T11:44:16.196Z,1024.04
2023-02-13T11:45:16.162Z,1024.07
2023-02-13T11:46:17.284Z,1024.02
2023-02-13T11:47:16.111Z,1024.06
2023-02-13T11:48:16.072Z,1024.05
2023-02-13T11:49:16.042Z,1024.03
2023-02-13T11:50:16.014Z,1024.03
2023-02-13T11:51:15.983Z,1023.98
2023-02-13T11:52:15.966Z,1023.96
2023-02-13T11:53:15.927Z,1024
2023-02-13T11:54:15.936Z,1023.96
2023-02-13T11:55:15.866Z,1023.98
2023-02-13T11:56:15.849Z,1023.98
2023-02-13T11:57:15.810Z,1024.02
2023-02-13T11:58:15.832Z,1023.99
2023-02-13T11:59:15.753Z,1024
2023-02-13T12:00:15.720Z,1024.02
2023-02-13T12:01:15.696Z,1024
2023-02-13T12:02:15.751Z,1024.02
2023-02-13T12:03:15.781Z,1023.99
2023-02-13T12:04:15.605Z,1023.96
2023-02-13T12:05:15.586Z,1023.94
2023-02-13T12:06:15.646Z,1023.94
2023-02-13T12:07:15.530Z,1023.89
2023-02-13T12:08:15.489Z,1023.9